Aviation Digital Data Service (ADDS)

Output produced by METARs form (0019 UTC 02 September 2015)
found at http://aviationweather.gov/adds/metars/
 
KPBG 012320Z 0200/0224 VRB02KT P6SM SKC 
     FM021400 14007KT P6SM SKC